Time;durP1;ratioP1;P1;durP2;ratioP2;P2;SDS_P1;SDS_P2;PMS_P1;PMS_P2;Temp;Humidity;BMP_temperature;BMP_pressure;BME280_temperature;BME280_humidity;BME280_pressure;Samples;Min_cycle;Max_cycle;Signal;HPM_P1;HPM_P2
2021/10/02 00:02:03;;;;;;;0.80;0.63;;;21.50;50.00;;;25.38;33.38;100972.75;5115971;28;20044;-12
2021/10/02 00:45:21;;;;;;;0.60;0.60;;;21.40;50.00;;;25.33;33.35;100959.75;5098536;28;20043;-12
2021/10/02 00:47:46;;;;;;;0.52;0.52;;;21.50;50.00;;;25.32;33.51;100946.47;5114212;28;20043;-12
2021/10/02 00:50:14;;;;;;;0.77;0.47;;;21.40;50.00;;;25.34;33.32;100949.88;5114956;28;20063;-12
2021/10/02 00:52:41;;;;;;;0.50;0.50;;;21.40;50.00;;;25.35;33.49;100950.75;5115412;28;20047;-12
2021/10/02 00:55:07;;;;;;;0.52;0.50;;;21.50;50.00;;;25.36;33.39;100958.66;5096995;28;20050;-12
2021/10/02 00:57:33;;;;;;;0.50;0.50;;;21.50;50.00;;;25.34;33.52;100941.84;5114823;28;20039;-12
2021/10/02 00:59:59;;;;;;;0.60;0.60;;;21.50;50.00;;;25.35;33.32;100946.25;5114917;28;20045;-12
2021/10/02 01:02:55;;;;;;;0.47;0.47;;;21.40;49.90;;;25.37;33.44;100951.47;5114940;28;20055;-12
2021/10/02 01:05:54;;;;;;;0.60;0.60;;;21.50;49.90;;;25.35;33.46;100946.25;5113007;28;20040;-12
2021/10/02 01:08:36;;;;;;;0.85;0.60;;;21.50;49.90;;;25.34;33.50;100944.53;5114951;28;20051;-12
2021/10/02 01:11:09;;;;;;;;;;;21.40;50.00;;;25.50;33.13;100946.84;5097030;28;20044;-12
2021/10/02 01:14:17;;;;;;;0.60;0.60;;;21.50;50.00;;;25.41;33.34;100959.16;5114875;28;19916;-12
2021/10/02 01:16:49;;;;;;;0.52;0.52;;;21.40;49.90;;;25.36;33.52;100952.44;5092861;28;20090;-12
2021/10/02 01:19:42;;;;;;;0.60;0.60;;;21.50;50.00;;;25.32;33.33;100941.13;5114785;28;20095;-12
2021/10/02 01:23:07;;;;;;;0.70;0.70;;;21.40;50.00;;;25.37;33.50;100940.75;5114676;28;20431;-12
2021/10/02 01:26:26;;;;;;;0.70;0.68;;;21.50;50.00;;;25.36;33.46;100947.97;5103672;28;20047;-10
2021/10/02 01:28:56;;;;;;;0.50;0.50;;;21.50;50.10;;;25.31;33.42;100942.97;5096244;28;20047;-10
2021/10/02 01:31:33;;;;;;;0.50;0.50;;;21.40;50.00;;;25.32;33.50;100935.78;5114807;28;20055;-10
2021/10/02 01:34:17;;;;;;;0.55;0.55;;;21.40;50.00;;;25.31;33.46;100934.09;5114757;28;20468;-10
2021/10/02 01:37:26;;;;;;;0.60;0.60;;;21.40;50.10;;;25.35;33.49;100934.69;5097671;28;20101;-10
2021/10/02 01:48:17;;;;;;;0.55;0.55;;;21.40;50.00;;;25.31;33.30;100926.91;5099016;28;20395;-10
2021/10/02 01:50:45;;;;;;;0.60;0.43;;;21.40;50.10;;;25.31;33.38;100931.41;5095987;28;20046;-10
2021/10/02 01:53:12;;;;;;;0.50;0.50;;;21.40;50.00;;;25.29;33.46;100926.19;5095811;28;20048;-10
2021/10/02 01:55:38;;;;;;;0.45;0.45;;;21.40;50.00;;;25.32;33.34;100920.56;5114013;28;20101;-10
2021/10/02 01:58:10;;;;;;;0.93;0.50;;;21.40;49.90;;;25.31;33.62;100929.56;5096221;28;20039;-10
2021/10/02 02:00:42;;;;;;;0.65;0.50;;;21.40;49.90;;;25.31;33.40;100926.91;5113993;28;20122;-10
2021/10/02 02:03:11;;;;;;;1.02;0.80;;;21.40;50.00;;;25.30;33.31;100925.19;5113852;28;20043;-10
2021/10/02 02:05:38;;;;;;;0.35;0.35;;;21.40;50.00;;;25.31;33.34;100918.03;5095952;28;20126;-10
2021/10/02 02:08:08;;;;;;;0.50;0.50;;;21.40;50.00;;;25.29;33.43;100926.19;5114137;28;20048;-10
2021/10/02 02:10:34;;;;;;;0.50;0.50;;;21.40;50.00;;;25.29;33.45;100926.19;5113944;28;20044;-10
2021/10/02 02:13:01;;;;;;;0.52;0.52;;;21.40;50.10;;;25.30;33.36;100921.66;5095612;28;20070;-9
2021/10/02 02:15:29;;;;;;;0.52;0.50;;;21.40;50.00;;;25.31;33.65;100916.19;5093271;28;20050;-10
2021/10/02 02:18:11;;;;;;;0.55;0.45;;;21.40;50.00;;;25.31;33.43;100918.03;5113750;28;20040;-10
2021/10/02 02:20:44;;;;;;;0.50;0.50;;;21.40;50.10;;;25.28;33.56;100911.09;5113657;28;20050;-11
2021/10/02 02:23:12;;;;;;;1.20;0.60;;;21.30;50.10;;;25.31;33.45;100923.38;5095354;28;20381;-10
2021/10/02 02:25:38;;;;;;;0.60;0.60;;;21.40;50.20;;;25.32;33.42;100919.72;5095221;28;20059;-10
2021/10/02 02:28:07;;;;;;;0.50;0.50;;;21.40;50.10;;;25.30;33.31;100921.66;5113507;28;20050;-10
2021/10/02 02:30:34;;;;;;;0.65;0.55;;;21.40;50.00;;;25.31;33.42;100915.34;5113611;28;20161;-10
2021/10/02 02:33:02;;;;;;;0.50;0.50;;;21.40;50.10;;;25.31;33.41;100920.72;5113543;28;20044;-10
2021/10/02 02:35:28;;;;;;;0.40;0.38;;;21.40;50.00;;;25.31;33.43;100921.53;5113538;28;20392;-10
2021/10/02 02:37:55;;;;;;;0.77;0.50;;;21.40;50.00;;;25.31;33.34;100910.84;5113273;28;20059;-10
2021/10/02 02:40:22;;;;;;;0.93;0.63;;;21.40;50.00;;;25.30;33.46;100906.44;5113554;28;20440;-10
2021/10/02 02:42:48;;;;;;;0.60;0.40;;;21.40;50.00;;;25.32;33.40;100906.31;5113409;28;20043;-10
2021/10/02 02:45:19;;;;;;;0.93;0.70;;;21.40;50.00;;;25.30;33.43;100903.78;5095108;28;20051;-10
2021/10/02 02:48:07;;;;;;;0.50;0.50;;;21.40;50.00;;;25.33;33.47;100911.56;5095324;28;20115;-10
2021/10/02 02:51:02;;;;;;;0.90;0.50;;;21.40;50.00;;;25.32;33.37;100906.31;5094906;28;20074;-10
2021/10/02 02:53:52;;;;;;;0.73;0.55;;;21.40;50.00;;;25.28;33.44;100899.53;5113217;28;20101;-10
2021/10/02 02:56:26;;;;;;;0.50;0.50;;;21.40;50.00;;;25.31;33.40;100904.66;5095386;28;20044;-10
2021/10/02 02:58:58;;;;;;;0.60;0.60;;;21.40;50.00;;;25.32;33.46;100911.69;5093182;28;20100;-10
2021/10/02 03:01:25;;;;;;;0.52;0.52;;;21.40;50.00;;;25.28;33.42;100905.72;5078098;28;20055;-10
2021/10/02 03:03:54;;;;;;;0.52;0.50;;;21.40;50.00;;;25.30;33.46;100902.94;5093135;28;20078;-10
2021/10/02 03:06:22;;;;;;;0.40;0.40;;;21.40;49.90;;;25.30;33.71;100917.16;5094736;28;20489;-10
2021/10/02 03:08:52;;;;;;;0.50;0.45;;;21.40;49.90;;;25.29;33.43;100902.09;5113314;28;20044;-10
2021/10/02 03:11:21;;;;;;;0.50;0.50;;;21.40;50.00;;;25.29;33.44;100899.41;5101038;28;20043;-10
2021/10/02 03:13:51;;;;;;;0.85;0.40;;;21.40;50.00;;;25.29;33.49;100901.22;5119833;28;20126;-10
2021/10/02 03:16:19;;;;;;;0.40;0.40;;;21.40;50.00;;;25.35;33.27;100900.75;5101809;28;20051;-10
2021/10/02 03:18:53;;;;;;;1.00;0.50;;;21.40;50.00;;;25.31;33.39;100894.78;5120029;28;20494;-10
2021/10/02 03:21:22;;;;;;;0.40;0.40;;;21.40;50.00;;;25.31;33.50;100896.63;5101383;28;20039;-10
2021/10/02 03:23:50;;;;;;;0.50;0.50;;;21.40;50.00;;;25.31;33.38;100896.63;5119692;28;20051;-10
2021/10/02 03:26:17;;;;;;;0.50;0.50;;;21.40;50.00;;;25.29;33.46;100898.53;5101342;28;20050;-10
2021/10/02 03:28:44;;;;;;;0.40;0.40;;;21.40;50.00;;;25.28;33.42;100903.06;5098987;28;20048;-10
2021/10/02 03:31:10;;;;;;;0.60;0.60;;;21.30;50.10;;;25.28;33.47;100897.69;5101167;28;20544;-10
2021/10/02 03:33:38;;;;;;;0.40;0.40;;;21.40;50.10;;;25.29;33.35;100895.88;5084752;28;20043;-10
2021/10/02 03:36:05;;;;;;;0.85;0.70;;;21.40;50.10;;;25.26;33.50;100885.38;5101231;28;20150;-10
2021/10/02 03:38:31;;;;;;;0.45;0.45;;;21.40;50.10;;;25.27;33.52;100895.16;5101165;28;20054;-10
2021/10/02 03:41:02;;;;;;;0.57;0.57;;;21.40;50.10;;;25.26;33.37;100902.34;5101689;28;20075;-9
2021/10/02 03:43:31;;;;;;;0.60;0.60;;;21.40;50.10;;;25.29;33.39;100895.88;5119761;28;20065;-10
2021/10/02 03:45:57;;;;;;;0.47;0.47;;;21.40;50.10;;;25.28;33.50;100883.47;5119428;28;20449;-10
2021/10/02 03:48:23;;;;;;;0.43;0.43;;;21.40;50.10;;;25.29;33.50;100887.84;5119356;28;20071;-10
2021/10/02 03:50:49;;;;;;;0.50;0.47;;;21.40;50.10;;;25.29;33.50;100887.84;5119229;28;20078;-10
2021/10/02 03:53:14;;;;;;;0.50;0.50;;;21.40;50.00;;;25.28;33.42;100884.31;5119372;28;20047;-10
2021/10/02 03:55:40;;;;;;;0.47;0.47;;;21.40;50.00;;;25.30;33.43;100879.69;5119213;28;20047;-10
2021/10/02 03:58:06;;;;;;;0.40;0.40;;;21.40;50.20;;;25.29;33.46;100872.66;5119250;28;20051;-10
2021/10/02 04:00:32;;;;;;;0.75;0.57;;;21.30;50.30;;;25.30;33.39;100870.81;5119517;28;20046;-10
2021/10/02 04:02:58;;;;;;;0.60;0.50;;;21.20;50.30;;;25.30;33.46;100868.16;5119154;28;20139;-10
2021/10/02 04:05:24;;;;;;;0.60;0.60;;;21.20;50.40;;;25.28;33.43;100870.94;5119170;28;20039;-10
2021/10/02 04:07:49;;;;;;;0.47;0.47;;;21.30;50.30;;;25.31;33.50;100873.38;5119534;28;20468;-10
2021/10/02 04:10:15;;;;;;;0.50;0.50;;;21.30;50.30;;;25.33;33.71;100882.13;5119505;28;20061;-10
2021/10/02 04:12:41;;;;;;;1.38;0.40;;;21.30;50.40;;;25.29;33.45;100861.94;5119073;28;20431;-9
2021/10/02 04:15:07;;;;;;;0.60;0.60;;;21.30;50.40;;;25.30;33.52;100868.16;5118991;28;20072;-10
2021/10/02 04:17:34;;;;;;;0.40;0.40;;;21.30;50.30;;;25.32;33.58;100871.53;5118923;28;20081;-10
2021/10/02 04:20:00;;;;;;;0.47;0.47;;;21.30;50.40;;;25.36;33.47;100877.50;5119036;28;20047;-10
2021/10/02 04:22:25;;;;;;;0.50;0.50;;;21.30;50.40;;;25.33;33.48;100871.41;5115092;28;20040;-10
2021/10/02 04:24:51;;;;;;;0.50;0.50;;;21.30;50.40;;;25.35;33.54;100870.47;5116116;28;20047;-10
2021/10/02 04:27:18;;;;;;;0.40;0.40;;;21.30;50.40;;;25.37;33.60;100868.50;5115546;28;20048;-10
2021/10/02 04:29:45;;;;;;;0.50;0.50;;;21.30;50.30;;;25.39;33.53;100869.22;5115377;28;20452;-10
2021/10/02 04:32:12;;;;;;;0.63;0.60;;;21.30;50.30;;;25.39;33.43;100871.91;5115773;28;20076;-11
2021/10/02 04:34:38;;;;;;;0.98;0.60;;;21.30;50.30;;;25.42;33.50;100874.31;5115749;28;20444;-10
2021/10/02 04:37:04;;;;;;;0.50;0.50;;;21.30;50.20;;;25.42;33.40;100869.81;5115223;28;20101;-10
2021/10/02 04:39:30;;;;;;;0.50;0.50;;;21.40;50.20;;;25.43;33.46;100871.53;5115828;28;20502;-10
2021/10/02 04:41:56;;;;;;;0.50;0.43;;;21.40;50.20;;;25.45;33.44;100880.28;5115304;28;20039;-10
2021/10/02 04:44:22;;;;;;;0.50;0.50;;;21.40;50.10;;;25.44;33.26;100872.38;5115515;28;20044;-10
2021/10/02 04:46:48;;;;;;;0.60;0.60;;;21.40;50.20;;;25.49;33.24;100887.09;5115390;28;20058;-10
2021/10/02 04:49:14;;;;;;;0.77;0.70;;;21.40;50.10;;;25.48;33.29;100880.03;5114941;28;20510;-10
2021/10/02 04:51:40;;;;;;;0.47;0.47;;;21.40;50.10;;;25.49;33.42;100883.56;5115386;28;20052;-10
2021/10/02 04:54:06;;;;;;;0.75;0.70;;;21.40;50.10;;;25.48;33.31;100877.34;5115394;28;20055;-10
2021/10/02 04:56:32;;;;;;;0.50;0.50;;;21.40;50.20;;;25.49;33.11;100873.72;5096763;28;20052;-10
2021/10/02 04:58:59;;;;;;;0.60;0.57;;;21.40;50.10;;;25.49;33.30;100876.41;5114882;28;20044;-10
2021/10/02 05:01:25;;;;;;;0.43;0.43;;;21.40;50.10;;;25.48;33.25;100872.00;5114905;28;20395;-10
2021/10/02 05:03:51;;;;;;;0.40;0.40;;;21.40;50.10;;;25.51;33.27;100871.75;5115242;28;20130;-10
2021/10/02 05:06:17;;;;;;;0.50;0.50;;;21.50;49.90;;;25.50;33.26;100872.72;5114884;28;20069;-10
2021/10/02 05:08:44;;;;;;;0.57;0.57;;;21.60;49.60;;;25.52;33.14;100867.25;5112670;28;20491;-10
2021/10/02 05:11:10;;;;;;;0.40;0.40;;;21.60;49.40;;;25.50;33.18;100870.03;5115100;28;20053;-10
2021/10/02 05:13:36;;;;;;;0.50;0.50;;;21.70;49.30;;;25.52;33.21;100875.28;5114553;28;20048;-10
2021/10/02 05:16:03;;;;;;;0.50;0.50;;;21.70;49.20;;;25.51;33.13;100870.91;5114773;28;20076;-10
2021/10/02 05:18:30;;;;;;;0.60;0.52;;;21.80;49.30;;;25.51;33.27;100878.94;5112534;28;20044;-10
2021/10/02 05:20:56;;;;;;;0.43;0.43;;;21.70;49.20;;;25.52;33.18;100881.47;5114745;28;20051;-10
2021/10/02 05:23:22;;;;;;;0.40;0.40;;;21.70;49.20;;;25.51;33.18;100871.75;5114941;28;20039;-10
2021/10/02 05:25:48;;;;;;;0.40;0.40;;;21.70;49.30;;;25.52;33.07;100877.97;5114515;28;20043;-10
2021/10/02 05:28:13;;;;;;;0.40;0.40;;;21.70;49.20;;;25.51;33.17;100869.09;5114583;28;20130;-10
2021/10/02 05:30:39;;;;;;;0.40;0.40;;;21.70;49.40;;;25.52;33.25;100876.13;5114669;28;20391;-10
2021/10/02 05:33:05;;;;;;;0.50;0.50;;;21.60;49.50;;;25.53;33.10;100877.00;5113962;28;20058;-10
2021/10/02 05:35:33;;;;;;;0.45;0.43;;;21.60;49.60;;;25.52;33.16;100886.00;5114412;28;20105;-10
2021/10/02 05:37:59;;;;;;;0.50;0.50;;;21.50;49.70;;;25.53;33.16;100887.69;5114411;28;20395;-10
2021/10/02 05:40:25;;;;;;;0.50;0.50;;;21.50;49.80;;;25.53;33.30;100887.69;5114159;28;20048;-10
2021/10/02 05:42:51;;;;;;;0.50;0.40;;;21.50;49.90;;;25.51;33.17;100885.16;5114312;28;20055;-10
2021/10/02 05:45:17;;;;;;;0.50;0.50;;;21.40;49.90;;;25.51;33.25;100893.19;5114762;28;20110;-10
2021/10/02 05:47:42;;;;;;;0.50;0.50;;;21.40;50.00;;;25.53;33.25;100903.75;5114299;28;20091;-10
2021/10/02 05:50:08;;;;;;;0.50;0.50;;;21.50;50.00;;;25.51;33.18;100901.22;5114091;28;20071;-10
2021/10/02 05:52:34;;;;;;;0.50;0.50;;;21.40;50.10;;;25.48;33.25;100893.41;5114089;28;20086;-10
2021/10/02 05:55:00;;;;;;;0.40;0.40;;;21.40;50.10;;;25.49;33.25;100894.25;5114161;28;20048;-10
2021/10/02 05:57:26;;;;;;;0.52;0.50;;;21.40;50.10;;;25.47;33.18;100897.06;5114392;28;20050;-10
2021/10/02 05:59:51;;;;;;;0.55;0.40;;;21.40;50.20;;;25.48;33.08;100904.13;5114191;28;20148;-10
2021/10/02 06:02:18;;;;;;;0.60;0.60;;;21.40;49.90;;;25.46;33.17;100902.53;5114185;28;20093;-10
2021/10/02 06:04:45;;;;;;;0.40;0.40;;;21.40;50.00;;;25.46;33.28;100899.84;5114020;28;20120;-10
2021/10/02 06:07:12;;;;;;;0.57;0.32;;;21.40;49.90;;;25.48;33.28;100904.13;5113890;28;20051;-10
2021/10/02 06:09:38;;;;;;;0.50;0.40;;;21.40;50.00;;;25.46;33.32;100900.72;5113714;28;20039;-10
2021/10/02 06:12:04;;;;;;;0.63;0.50;;;21.40;49.90;;;25.45;33.24;100900.84;5113885;28;20043;-10
2021/10/02 06:14:29;;;;;;;0.50;0.50;;;21.40;50.00;;;25.48;33.31;100901.44;5113789;28;20047;-10
2021/10/02 06:16:55;;;;;;;0.40;0.40;;;21.50;49.80;;;25.48;33.42;100900.63;5113784;28;20051;-10
2021/10/02 06:19:21;;;;;;;0.70;0.40;;;21.50;49.70;;;25.48;33.26;100904.13;5113952;28;20100;-10
2021/10/02 06:21:47;;;;;;;0.90;0.70;;;21.60;49.70;;;25.47;33.20;100894.38;5113652;28;20520;-10
2021/10/02 06:24:14;;;;;;;0.47;0.47;;;21.60;49.60;;;25.48;33.20;100904.13;5093147;28;20051;-10
2021/10/02 06:26:41;;;;;;;0.40;0.40;;;21.50;49.70;;;25.48;33.21;100904.13;5113540;28;20085;-10
2021/10/02 06:29:09;;;;;;;0.40;0.40;;;21.50;49.60;;;25.47;33.20;100898.91;5113405;28;20051;-10
2021/10/02 06:31:36;;;;;;;0.40;0.40;;;21.60;49.60;;;25.47;33.14;100898.91;5113506;28;20051;-10
2021/10/02 06:34:02;;;;;;;0.30;0.30;;;21.60;49.60;;;25.47;33.14;100907.78;5113444;28;20055;-10
2021/10/02 06:36:29;;;;;;;0.70;0.70;;;21.60;49.50;;;25.44;33.24;100900.00;5113493;28;20050;-10
2021/10/02 06:38:55;;;;;;;0.55;0.55;;;21.60;49.60;;;25.47;33.12;100907.78;5113332;28;20140;-10
2021/10/02 06:41:22;;;;;;;0.50;0.50;;;21.60;49.60;;;25.47;33.29;100910.44;5113502;28;20086;-10
2021/10/02 06:43:48;;;;;;;0.50;0.50;;;21.60;49.60;;;25.47;33.07;100904.25;5113127;28;20047;-10
2021/10/02 06:46:15;;;;;;;0.68;0.45;;;21.60;49.50;;;25.47;33.18;100914.97;5112721;28;20113;-10
2021/10/02 06:48:41;;;;;;;0.45;0.40;;;21.60;49.50;;;25.48;33.17;100916.69;5094928;28;20055;-10
2021/10/02 06:51:08;;;;;;;0.47;0.47;;;21.60;49.60;;;25.47;33.21;100920.31;5113258;28;20051;-10
2021/10/02 06:53:34;;;;;;;0.38;0.38;;;21.50;49.60;;;25.47;33.24;100926.50;5113543;28;20048;-10
2021/10/02 06:56:00;;;;;;;0.40;0.40;;;21.50;49.70;;;25.47;33.23;100926.50;5114029;28;20115;-10
2021/10/02 06:58:25;;;;;;;0.40;0.40;;;21.50;49.70;;;25.46;33.35;100921.28;5113219;28;20050;-10
2021/10/02 07:00:51;;;;;;;0.45;0.45;;;21.50;49.70;;;25.46;33.14;100921.28;5113158;28;20039;-10
2021/10/02 07:03:17;;;;;;;0.50;0.40;;;21.50;50.20;;;25.47;33.28;100926.50;5113147;28;20051;-10
2021/10/02 07:05:43;;;;;;;0.40;0.40;;;21.50;49.70;;;25.47;33.31;100923.00;5112914;28;20058;-10
2021/10/02 07:08:08;;;;;;;0.60;0.50;;;21.50;50.40;;;25.46;33.29;100919.47;5094563;28;20054;-10
2021/10/02 07:10:34;;;;;;;0.47;0.47;;;21.50;49.80;;;25.45;33.34;100917.75;5113084;28;20093;-10
2021/10/02 07:13:02;;;;;;;0.50;0.50;;;21.50;49.80;;;25.46;33.19;100911.44;5113242;28;20043;-10
2021/10/02 07:15:28;;;;;;;0.50;0.40;;;21.50;49.80;;;25.47;33.19;100923.84;5112999;28;20043;-10
2021/10/02 07:17:54;;;;;;;0.40;0.40;;;21.50;49.90;;;25.47;33.20;100928.34;5112859;28;20564;-10
2021/10/02 07:20:22;;;;;;;0.40;0.40;;;21.50;49.80;;;25.46;33.23;100916.78;5112985;28;20051;-10
2021/10/02 07:22:47;;;;;;;0.30;0.30;;;21.50;49.80;;;25.44;33.30;100910.72;5113058;28;20074;-10
2021/10/02 07:25:15;;;;;;;1.25;0.55;;;21.50;49.60;;;25.46;33.31;100922.16;5112797;28;20496;-10
2021/10/02 07:27:42;;;;;;;0.50;0.50;;;21.50;49.60;;;25.47;33.26;100929.19;5112721;28;20109;-10
2021/10/02 07:30:12;;;;;;;0.50;0.50;;;21.50;49.60;;;25.45;33.28;100925.78;5112872;28;20044;-10
2021/10/02 07:32:38;;;;;;;0.63;0.50;;;21.50;49.60;;;25.47;33.20;100931.88;5090964;28;20508;-10
2021/10/02 07:35:07;;;;;;;0.47;0.47;;;21.60;49.60;;;25.45;33.15;100920.44;5112599;28;20503;-10
2021/10/02 07:37:32;;;;;;;0.47;0.47;;;21.50;49.60;;;25.44;33.35;100921.44;5112522;28;20487;-10
2021/10/02 07:39:58;;;;;;;0.90;0.70;;;21.50;49.60;;;25.44;33.00;100921.44;5113266;28;20135;-10
2021/10/02 07:42:25;;;;;;;0.40;0.40;;;21.50;49.60;;;25.47;33.40;100931.03;5112601;28;20039;-10
2021/10/02 07:44:58;;;;;;;0.45;0.45;;;21.60;49.60;;;25.46;33.35;100926.63;5112424;28;20502;-10
2021/10/02 07:47:25;;;;;;;0.32;0.32;;;21.50;49.60;;;25.45;33.31;100920.44;5094130;28;20054;-10
2021/10/02 07:49:52;;;;;;;0.40;0.40;;;21.50;49.60;;;25.44;33.22;100916.06;5078035;28;20067;-10
2021/10/02 07:52:20;;;;;;;0.43;0.43;;;21.50;49.70;;;25.43;33.15;100919.72;5112738;28;20039;-10
2021/10/02 07:54:50;;;;;;;0.80;0.65;;;21.50;49.60;;;25.46;33.20;100929.31;5112390;28;20048;-10
2021/10/02 07:57:18;;;;;;;0.50;0.50;;;21.60;49.60;;;25.45;33.30;100931.16;5097165;28;20139;-10
2021/10/02 07:59:48;;;;;;;0.50;0.40;;;21.60;49.60;;;25.48;33.24;100935.41;5114021;28;20047;-10
2021/10/02 08:02:19;;;;;;;0.50;0.50;;;21.60;49.50;;;25.47;33.27;100931.88;5115943;28;20051;-10
2021/10/02 08:04:46;;;;;;;0.40;0.40;;;21.60;49.50;;;25.48;33.22;100922.03;5116471;28;20093;-10
2021/10/02 08:07:14;;;;;;;0.50;0.50;;;21.60;49.60;;;25.47;33.22;100907.78;5113606;28;20495;-10
2021/10/02 08:09:41;;;;;;;0.50;0.50;;;21.60;49.60;;;25.48;33.29;100897.94;5116189;28;20055;-9
2021/10/02 08:12:09;;;;;;;0.40;0.40;;;21.60;49.60;;;25.48;33.36;100898.78;5115900;28;20054;-10
2021/10/02 08:14:34;;;;;;;0.60;0.60;;;21.60;49.60;;;25.50;33.21;100899.50;5095239;28;20058;-10
2021/10/02 08:17:01;;;;;;;0.50;0.50;;;21.50;49.60;;;25.47;33.16;100894.38;5115908;28;20122;-10
2021/10/02 08:19:30;;;;;;;0.45;0.45;;;21.60;49.60;;;25.48;33.19;100889.91;5115955;28;20054;-10
2021/10/02 08:21:57;;;;;;;0.40;0.40;;;21.60;49.60;;;25.51;33.14;100898.53;5095217;28;20058;-10
2021/10/02 08:24:25;;;;;;;0.40;0.40;;;21.60;49.50;;;25.51;33.14;100903.03;5094983;28;20105;-10
2021/10/02 08:26:52;;;;;;;0.50;0.50;;;21.60;49.50;;;25.51;33.25;100895.00;5115782;28;20072;-10
2021/10/02 08:29:20;;;;;;;0.43;0.40;;;21.60;49.50;;;25.51;33.16;100897.69;5115336;28;20048;-10
2021/10/02 08:31:46;;;;;;;0.40;0.40;;;21.60;49.40;;;25.51;33.19;100906.56;5115824;28;20388;-10
2021/10/02 08:34:12;;;;;;;0.40;0.40;;;21.70;49.40;;;25.52;33.17;100904.72;5097662;28;20048;-10
2021/10/02 08:36:38;;;;;;;0.40;0.40;;;21.70;49.50;;;25.54;33.16;100908.13;5115677;28;20047;-10
2021/10/02 08:39:03;;;;;;;0.50;0.50;;;21.60;49.50;;;25.54;33.12;100910.81;5115169;28;20074;-10
2021/10/02 08:41:30;;;;;;;0.50;0.50;;;21.70;49.50;;;25.51;33.21;100895.84;5115360;28;20048;-10
2021/10/02 08:43:56;;;;;;;0.43;0.43;;;21.60;49.60;;;25.49;33.15;100899.63;5097055;28;20055;-10
2021/10/02 08:46:22;;;;;;;0.90;0.63;;;21.50;49.60;;;25.52;33.20;100912.75;5096828;28;20052;-10
2021/10/02 08:49:10;;;;;;;0.40;0.40;;;21.50;49.70;;;25.51;33.27;100917.28;5096914;28;20043;-9
2021/10/02 08:51:37;;;;;;;0.40;0.40;;;21.60;49.60;;;25.50;33.16;100917.41;5115255;28;20092;-10
2021/10/02 08:54:04;;;;;;;0.40;0.40;;;21.60;49.60;;;25.50;33.14;100918.22;5115112;28;20052;-10
2021/10/02 08:56:32;;;;;;;0.40;0.40;;;21.60;49.60;;;25.51;33.11;100919.09;5096763;28;20048;-10
2021/10/02 08:59:00;;;;;;;0.30;0.30;;;21.60;49.70;;;25.47;33.10;100905.09;5097202;28;20044;-10
2021/10/02 09:01:26;;;;;;;0.40;0.40;;;21.50;49.60;;;25.50;33.15;100901.34;5096742;28;20048;-10
2021/10/02 09:03:52;;;;;;;0.52;0.50;;;21.50;49.70;;;25.50;33.33;100901.34;5115188;28;20062;-10
2021/10/02 09:06:18;;;;;;;0.82;0.50;;;21.50;49.80;;;25.50;33.14;100898.66;5096438;28;20476;-10
2021/10/02 09:08:44;;;;;;;0.50;0.50;;;21.50;49.70;;;25.51;33.25;100898.53;5114126;28;20036;-10
2021/10/02 09:11:11;;;;;;;0.40;0.40;;;21.60;49.60;;;25.54;33.07;100909.97;5114891;28;20097;-10
2021/10/02 09:13:36;;;;;;;0.70;0.63;;;21.60;49.50;;;25.55;33.16;100904.50;5114843;28;20510;-10
2021/10/02 09:16:02;;;;;;;0.40;0.40;;;21.70;49.50;;;25.54;33.23;100910.81;5115033;28;20055;-10
2021/10/02 09:18:30;;;;;;;0.52;0.40;;;21.70;49.50;;;25.56;33.23;100900.84;5114761;28;20459;-10
2021/10/02 09:21:07;;;;;;;0.40;0.40;;;21.60;49.50;;;25.55;33.14;100904.50;5114650;28;20040;-10
2021/10/02 09:23:41;;;;;;;0.47;0.47;;;21.60;49.50;;;25.57;32.93;100913.25;5114773;28;20044;-10
2021/10/02 09:26:07;;;;;;;0.50;0.50;;;21.60;49.40;;;25.58;33.17;100906.06;5114572;28;20185;-10
2021/10/02 09:28:42;;;;;;;0.70;0.70;;;21.70;49.30;;;25.59;33.22;100902.41;5114462;28;20107;-10
2021/10/02 09:31:09;;;;;;;0.40;0.40;;;21.70;49.40;;;25.59;32.93;100899.72;5114947;28;20051;-10
2021/10/02 09:33:36;;;;;;;0.50;0.50;;;21.70;49.40;;;25.58;33.08;100898.88;5115083;28;20050;-10
2021/10/02 09:36:02;;;;;;;0.40;0.40;;;21.70;49.40;;;25.61;33.20;100903.13;5096168;28;20052;-9
2021/10/02 09:38:33;;;;;;;0.40;0.40;;;21.70;49.40;;;25.58;33.10;100895.38;5114365;28;20055;-10
2021/10/02 09:41:01;;;;;;;0.73;0.50;;;21.70;49.30;;;25.63;33.11;100894.00;5114828;28;20044;-10
2021/10/02 09:43:30;;;;;;;0.50;0.50;;;21.70;49.20;;;25.59;33.19;100870.28;5114349;28;20054;-10
2021/10/02 09:45:55;;;;;;;0.60;0.40;;;21.70;49.30;;;25.62;32.99;100870.88;5114194;28;20044;-10
2021/10/02 09:48:31;;;;;;;0.30;0.30;;;21.80;49.20;;;25.65;32.90;100869.78;5114070;28;20608;-10
2021/10/02 09:51:08;;;;;;;0.40;0.40;;;21.90;49.10;;;25.66;33.09;100866.97;5114280;28;20082;-10
2021/10/02 09:53:43;;;;;;;0.50;0.50;;;21.90;49.10;;;25.65;32.93;100857.25;5096419;28;20043;-10
2021/10/02 09:56:12;;;;;;;0.40;0.40;;;21.90;49.00;;;25.69;32.92;100864.06;5114402;28;20184;-10
2021/10/02 09:58:40;;;;;;;0.40;0.40;;;21.90;49.00;;;25.72;32.97;100859.41;5096149;28;20108;-10
2021/10/02 10:01:08;;;;;;;0.50;0.47;;;21.90;48.90;;;25.73;32.90;100867.34;5113949;28;20066;-10
2021/10/02 10:03:42;;;;;;;0.50;0.50;;;21.90;48.90;;;25.74;33.10;100865.50;5095972;28;20035;-10
2021/10/02 10:06:24;;;;;;;0.40;0.40;;;21.90;49.00;;;25.75;32.94;100859.16;5113852;28;20051;-10
2021/10/02 10:09:08;;;;;;;0.40;0.40;;;21.80;49.00;;;25.75;33.07;100862.69;5114023;28;20056;-10
2021/10/02 10:12:00;;;;;;;0.40;0.40;;;21.80;49.10;;;25.74;32.79;100847.59;5112208;28;20100;-10
2021/10/02 10:14:28;;;;;;;0.40;0.40;;;21.90;48.90;;;25.78;32.87;100853.56;5091149;28;20050;-10
2021/10/02 10:16:57;;;;;;;0.50;0.50;;;22.00;48.90;;;25.79;32.90;100841.84;5113892;28;20047;-9
2021/10/02 10:19:30;;;;;;;0.40;0.40;;;21.90;48.90;;;25.84;32.89;100850.34;5112378;28;20055;-10
2021/10/02 10:22:14;;;;;;;0.40;0.40;;;21.90;48.90;;;25.85;32.85;100850.22;5114145;28;20051;-10
2021/10/02 10:24:51;;;;;;;0.50;0.50;;;21.90;48.90;;;25.86;32.83;100857.31;5113570;28;20040;-10
2021/10/02 10:27:42;;;;;;;0.63;0.40;;;21.90;48.90;;;25.88;32.79;100866.06;5114044;28;20093;-10
2021/10/02 10:30:24;;;;;;;0.45;0.40;;;22.00;48.80;;;25.89;32.82;100867.78;5113548;28;20043;-10
2021/10/02 10:33:10;;;;;;;0.60;0.60;;;22.00;48.70;;;25.89;32.82;100858.88;5095457;28;20556;-10
2021/10/02 10:35:44;;;;;;;0.50;0.50;;;22.00;48.70;;;25.89;32.69;100853.50;5113549;28;20089;-10
2021/10/02 10:38:14;;;;;;;0.60;0.60;;;22.00;48.80;;;25.88;32.76;100849.16;5113385;28;20476;-10
2021/10/02 10:40:40;;;;;;;0.38;0.38;;;22.00;48.80;;;25.86;32.79;100841.22;5113557;28;20043;-10
2021/10/02 10:43:06;;;;;;;0.40;0.40;;;21.90;48.80;;;25.89;32.61;100861.53;5113319;28;20048;-10
2021/10/02 10:45:35;;;;;;;0.40;0.40;;;21.90;48.80;;;25.87;32.64;100856.31;5113627;28;20079;-10
2021/10/02 10:48:01;;;;;;;0.50;0.50;;;21.90;48.90;;;25.89;32.70;100861.53;5113330;28;20100;-10
2021/10/02 10:50:27;;;;;;;0.40;0.40;;;21.90;48.90;;;25.86;32.63;100862.66;5113372;28;20039;-10
2021/10/02 10:52:58;;;;;;;0.40;0.40;;;22.00;48.80;;;25.87;32.74;100864.34;5113306;28;20050;-10
2021/10/02 10:55:24;;;;;;;;;;;21.90;49.40;;;26.01;32.51;100849.84;5113798;28;20050;-10
2021/10/02 10:57:56;;;;;;;0.43;0.40;;;21.90;48.80;;;25.92;32.71;100860.44;5113102;28;19924;-10
2021/10/02 11:00:41;;;;;;;0.40;0.40;;;21.90;48.80;;;25.85;32.65;100852.91;5113676;28;20043;-10
2021/10/02 11:03:08;;;;;;;0.63;0.57;;;21.90;48.80;;;25.85;32.77;100849.41;5095084;28;20039;-10
2021/10/02 11:05:37;;;;;;;0.30;0.30;;;21.90;48.80;;;25.86;32.64;100857.31;5113010;28;20487;-10
2021/10/02 11:08:04;;;;;;;0.40;0.40;;;22.00;48.80;;;25.87;32.71;100860.81;5113352;28;20054;-10
2021/10/02 11:10:46;;;;;;;0.65;0.60;;;22.00;48.80;;;25.85;32.81;100860.09;5113110;28;20051;-10
2021/10/02 11:13:37;;;;;;;0.40;0.40;;;21.90;48.80;;;25.83;32.87;100862.91;5113123;28;20050;-10